This is the latest recevied weather packets stored in our database for station/object VK4NB-13. If no packets are shown the sender has not sent any weather packets the latest 10 day(s).
| Time | Temp. | Humidity | Pressure | Rain* | Wind** | Luminosity | Snow |
|---|---|---|---|---|---|---|---|
| 1777938621 | 26.11° C | 79% | 1016.8 hPa | 0 mm | - | - | - |
| 1777937401 | 24.44° C | 84% | 1017 hPa | 0 mm | - | - | - |
| 1777935622 | 23.33° C | 86% | 1017.1 hPa | 0 mm | - | - | - |
| 1777935001 | 23.33° C | 87% | 1017 hPa | 0 mm | - | - | - |
| 1777933201 | 22.78° C | 91% | 1017.1 hPa | 0 mm | - | - | - |
| 1777929022 | 19.44° C | 99% | 1016.7 hPa | 0 mm | - | - | - |
| 1777928722 | 19.44° C | 99% | 1016.6 hPa | 0 mm | - | - | - |
| 1777927801 | 19.44° C | 99% | 1016.2 hPa | 0 mm | - | - | - |
| 1777927201 | 18.33° C | 99% | 1016.2 hPa | 0 mm | - | - | - |
| 1777926001 | 17.78° C | 99% | 1015.9 hPa | 0 mm | - | - | - |
| 1777923001 | 18.33° C | 99% | 1015.7 hPa | 0 mm | - | - | - |
| 1777922101 | 18.89° C | 99% | 1015.6 hPa | 0 mm | - | - | - |
| 1777921501 | 18.33° C | 99% | 1015.6 hPa | 0 mm | - | - | - |
| 1777916702 | 17.78° C | 99% | 1015.1 hPa | 0.25 mm | - | - | - |
| 1777914901 | 18.33° C | 99% | 1015.2 hPa | 0.25 mm | - | - | - |
| 1777914001 | 17.78° C | 99% | 1015.3 hPa | 0.25 mm | - | - | - |
| 1777912802 | 17.22° C | 99% | 1015.6 hPa | 0 mm | - | - | - |
| 1777911301 | 18.89° C | 99% | 1015.6 hPa | 0 mm | - | - | - |
| 1777908302 | 18.89° C | 99% | 1016.2 hPa | 0 mm | - | - | - |
| 1777907102 | 18.33° C | 99% | 1016 hPa | 0 mm | - | - | - |
| 1777905003 | 19.44° C | 99% | 1016.2 hPa | 0 mm | - | - | - |
| 1777904402 | 19.44° C | 99% | 1016.1 hPa | 0 mm | - | - | - |
| 1777903502 | 18.89° C | 99% | 1016.2 hPa | 0 mm | - | - | - |
| 1777901403 | 19.44° C | 99% | 1016.4 hPa | 0 mm | - | - | - |
| 1777900802 | 19.44° C | 99% | 1016.5 hPa | 0 mm | - | - | - |
* Rain latest hour (hover to see other rain measurements)
** Current wind speed in m/s (hover to see current wind gust speed)